createdAt,value
2019-01-06T00:00:52.991Z,6.91
2019-01-06T00:03:58.416Z,6.92
2019-01-06T00:06:47.106Z,6.92
2019-01-06T00:09:49.271Z,6.90
2019-01-06T00:12:34.510Z,6.83
2019-01-06T00:15:20.528Z,6.82
2019-01-06T00:18:07.440Z,6.81
2019-01-06T00:21:12.671Z,6.85
2019-01-06T00:24:05.395Z,6.85
2019-01-06T00:26:52.366Z,6.84
2019-01-06T00:29:41.901Z,6.85
2019-01-06T00:32:28.831Z,6.84
2019-01-06T00:35:27.805Z,6.84
2019-01-06T00:38:14.755Z,6.83
2019-01-06T00:41:00.365Z,6.80
2019-01-06T00:43:50.265Z,6.82
2019-01-06T00:46:36.075Z,6.81
2019-01-06T00:49:23.032Z,6.75
2019-01-06T00:52:10.085Z,6.77
2019-01-06T00:55:09.147Z,6.80
2019-01-06T00:57:52.866Z,6.79
2019-01-06T01:00:38.573Z,6.84
2019-01-06T01:03:19.720Z,6.84
2019-01-06T01:06:05.292Z,6.83
2019-01-06T01:08:52.192Z,6.81
2019-01-06T01:11:47.925Z,6.79
2019-01-06T01:14:53.110Z,6.83
2019-01-06T01:17:49.165Z,6.79
2019-01-06T01:20:24.761Z,6.76
2019-01-06T01:23:14.726Z,6.78
2019-01-06T01:26:11.535Z,6.78
2019-01-06T01:28:58.475Z,6.78
2019-01-06T01:31:57.320Z,6.76
2019-01-06T01:34:46.781Z,6.76
2019-01-06T01:37:33.776Z,6.78
2019-01-06T01:40:32.645Z,6.83
2019-01-06T01:43:25.468Z,6.78
2019-01-06T01:46:24.770Z,6.78
2019-01-06T01:49:17.926Z,6.79
2019-01-06T01:52:00.006Z,6.70
2019-01-06T01:54:55.731Z,6.76
2019-01-06T01:57:41.446Z,6.76
2019-01-06T02:00:42.361Z,6.75
2019-01-06T02:03:18.486Z,6.79
2019-01-06T02:06:04.060Z,6.78
2019-01-06T02:08:49.666Z,6.74
2019-01-06T02:11:30.305Z,6.76
2019-01-06T02:14:35.440Z,6.75
2019-01-06T02:17:21.025Z,6.76
2019-01-06T02:20:08.035Z,6.78
2019-01-06T02:22:53.621Z,6.77
2019-01-06T02:25:39.102Z,6.79
2019-01-06T02:28:33.475Z,6.85
2019-01-06T02:31:19.448Z,6.79
2019-01-06T02:34:15.628Z,6.80
2019-01-06T02:37:02.610Z,6.79
2019-01-06T02:40:07.962Z,6.78
2019-01-06T02:42:53.400Z,6.83
2019-01-06T02:45:48.052Z,6.78
2019-01-06T02:48:35.241Z,6.80
2019-01-06T02:51:25.046Z,6.81
2019-01-06T02:54:10.946Z,6.80
2019-01-06T02:56:56.526Z,6.77
2019-01-06T02:59:42.251Z,6.79
2019-01-06T03:02:27.900Z,6.78
2019-01-06T03:05:20.607Z,6.78
2019-01-06T03:08:10.380Z,6.80
2019-01-06T03:11:03.258Z,6.80
2019-01-06T03:13:49.822Z,6.76
2019-01-06T03:16:39.445Z,6.79
2019-01-06T03:19:25.091Z,6.76
2019-01-06T03:22:10.671Z,6.77
2019-01-06T03:24:57.646Z,6.77
2019-01-06T03:27:50.558Z,6.80
2019-01-06T03:30:43.769Z,6.79
2019-01-06T03:33:30.741Z,6.78
2019-01-06T03:36:17.665Z,6.77
2019-01-06T03:39:04.751Z,6.75
2019-01-06T03:42:00.816Z,6.79
2019-01-06T03:44:50.687Z,6.76
2019-01-06T03:47:38.905Z,6.72
2019-01-06T03:50:26.474Z,6.77
2019-01-06T03:53:25.587Z,6.75
2019-01-06T03:56:15.218Z,6.76
2019-01-06T03:58:55.561Z,6.78
2019-01-06T04:01:48.180Z,6.79
2019-01-06T04:04:37.781Z,6.79
2019-01-06T04:07:23.465Z,6.76
2019-01-06T04:10:22.488Z,6.73
2019-01-06T04:13:13.821Z,6.73
2019-01-06T04:16:04.031Z,6.75
2019-01-06T04:19:00.120Z,6.75
2019-01-06T04:21:52.871Z,6.73
2019-01-06T04:24:38.531Z,6.76
2019-01-06T04:27:24.706Z,6.72
2019-01-06T04:30:17.345Z,6.71
2019-01-06T04:33:04.260Z,6.73
2019-01-06T04:36:09.360Z,6.70
2019-01-06T04:39:05.050Z,6.74
2019-01-06T04:42:03.920Z,6.74
2019-01-06T04:44:40.926Z,6.74
2019-01-06T04:47:26.468Z,6.70
2019-01-06T04:50:13.680Z,6.75
2019-01-06T04:53:09.620Z,6.70
2019-01-06T04:55:54.989Z,6.75
2019-01-06T04:58:35.140Z,6.74
2019-01-06T05:01:28.225Z,6.74
2019-01-06T05:04:08.547Z,6.75
2019-01-06T05:07:04.793Z,6.77
2019-01-06T05:10:00.885Z,6.80
2019-01-06T05:12:50.666Z,6.79
2019-01-06T05:15:43.732Z,6.75
2019-01-06T05:18:36.730Z,6.73
2019-01-06T05:21:22.306Z,6.74
2019-01-06T05:24:17.475Z,6.76
2019-01-06T05:27:19.580Z,6.76
2019-01-06T05:30:05.151Z,6.74
2019-01-06T05:32:57.695Z,6.72
2019-01-06T05:35:50.328Z,6.70
2019-01-06T05:38:55.363Z,6.75
2019-01-06T05:41:41.041Z,6.70
2019-01-06T05:44:31.150Z,6.71
2019-01-06T05:47:16.660Z,6.74
2019-01-06T05:50:02.281Z,6.76
2019-01-06T05:52:48.280Z,6.79
2019-01-06T05:55:45.486Z,6.78
2019-01-06T05:58:35.220Z,6.79
2019-01-06T06:01:20.771Z,6.78
2019-01-06T06:04:13.486Z,6.78
2019-01-06T06:07:12.751Z,6.70
2019-01-06T06:09:58.226Z,6.65
2019-01-06T06:12:43.839Z,6.71
2019-01-06T06:15:49.175Z,6.69
2019-01-06T06:18:51.200Z,6.72
2019-01-06T06:21:43.785Z,6.74
2019-01-06T06:24:36.330Z,6.77
2019-01-06T06:27:28.940Z,6.76
2019-01-06T06:30:24.935Z,6.78
2019-01-06T06:33:11.900Z,6.77
2019-01-06T06:35:57.521Z,6.73
2019-01-06T06:38:43.199Z,6.74
2019-01-06T06:41:22.667Z,6.72
2019-01-06T06:44:08.546Z,6.80
2019-01-06T06:47:01.411Z,6.78
2019-01-06T06:49:54.046Z,6.74
2019-01-06T06:52:31.972Z,6.73
2019-01-06T06:55:09.551Z,6.72
2019-01-06T06:58:39.965Z,6.75
2019-01-06T07:01:57.551Z,6.78
2019-01-06T07:04:57.591Z,6.77
2019-01-06T07:07:57.956Z,6.72
2019-01-06T07:10:43.279Z,6.75
2019-01-06T07:13:28.910Z,6.78
2019-01-06T07:16:24.671Z,6.76
2019-01-06T07:19:27.016Z,6.79
2019-01-06T07:22:31.960Z,6.83
2019-01-06T07:25:27.667Z,6.77
2019-01-06T07:28:17.851Z,6.83
2019-01-06T07:31:24.255Z,6.79
2019-01-06T07:34:13.840Z,6.82
2019-01-06T07:37:12.971Z,6.82
2019-01-06T07:40:02.520Z,6.84
2019-01-06T07:42:47.827Z,6.86
2019-01-06T07:46:00.496Z,6.88
2019-01-06T07:49:05.570Z,6.85
2019-01-06T07:51:52.706Z,6.82
2019-01-06T07:54:45.381Z,6.85
2019-01-06T07:57:44.726Z,6.85
2019-01-06T08:00:40.886Z,6.87
2019-01-06T08:03:39.985Z,6.84
2019-01-06T08:06:51.341Z,6.85
2019-01-06T08:09:36.941Z,6.87
2019-01-06T08:12:24.269Z,6.81
2019-01-06T08:15:05.787Z,6.80
2019-01-06T08:17:51.340Z,6.79
2019-01-06T08:20:36.920Z,6.78
2019-01-06T08:23:24.346Z,6.76
2019-01-06T08:26:19.672Z,6.80
2019-01-06T08:29:15.847Z,6.80
2019-01-06T08:31:56.945Z,6.79
2019-01-06T08:34:56.626Z,6.82
2019-01-06T08:37:49.771Z,6.77
2019-01-06T08:40:55.023Z,6.79
2019-01-06T08:43:57.265Z,6.77
2019-01-06T08:46:42.860Z,6.74
2019-01-06T08:49:32.843Z,6.79
2019-01-06T08:52:37.996Z,6.81
2019-01-06T08:55:25.040Z,6.88
2019-01-06T08:58:17.786Z,6.89
2019-01-06T09:01:03.625Z,6.82
2019-01-06T09:03:49.249Z,6.80
2019-01-06T09:06:54.378Z,6.85
2019-01-06T09:09:59.589Z,6.88
2019-01-06T09:12:49.480Z,6.89
2019-01-06T09:15:34.995Z,6.94
2019-01-06T09:18:20.416Z,6.92
2019-01-06T09:21:07.365Z,6.92
2019-01-06T09:24:12.461Z,6.94
2019-01-06T09:26:57.980Z,6.99
2019-01-06T09:29:49.206Z,6.96
2019-01-06T09:32:35.065Z,6.96
2019-01-06T09:35:35.826Z,6.97
2019-01-06T09:38:36.321Z,7.01
2019-01-06T09:41:29.406Z,7.02
2019-01-06T09:44:13.416Z,7.02
2019-01-06T09:47:12.266Z,7.03
2019-01-06T09:49:57.936Z,7.00
2019-01-06T09:52:43.547Z,7.03
2019-01-06T09:55:33.470Z,6.99
2019-01-06T09:58:20.490Z,7.00
2019-01-06T10:01:06.137Z,7.01
2019-01-06T10:03:53.036Z,7.02
2019-01-06T10:06:38.651Z,7.06
2019-01-06T10:09:29.856Z,7.04
2019-01-06T10:12:16.846Z,6.95
2019-01-06T10:15:07.090Z,6.98
2019-01-06T10:17:54.006Z,7.03
2019-01-06T10:20:52.566Z,7.01
2019-01-06T10:23:42.486Z,7.04
2019-01-06T10:26:35.966Z,7.02
2019-01-06T10:29:25.401Z,7.05
2019-01-06T10:32:13.385Z,7.10
2019-01-06T10:34:54.607Z,7.17
2019-01-06T10:37:40.295Z,7.10
2019-01-06T10:40:16.966Z,7.15
2019-01-06T10:43:07.265Z,7.20
2019-01-06T10:45:57.002Z,7.15
2019-01-06T10:48:55.701Z,7.21
2019-01-06T10:51:45.466Z,7.30
2019-01-06T10:54:32.346Z,7.23
2019-01-06T10:57:17.775Z,7.24
2019-01-06T11:00:04.701Z,7.20
2019-01-06T11:02:54.341Z,7.21
2019-01-06T11:05:59.630Z,7.12
2019-01-06T11:08:46.557Z,7.22
2019-01-06T11:11:45.746Z,7.27
2019-01-06T11:14:31.585Z,7.25
2019-01-06T11:17:17.441Z,7.22
2019-01-06T11:20:04.363Z,7.26
2019-01-06T11:22:49.884Z,7.33
2019-01-06T11:25:54.976Z,7.34
2019-01-06T11:28:56.821Z,7.36
2019-01-06T11:31:42.335Z,7.38
2019-01-06T11:34:28.265Z,7.31
2019-01-06T11:37:13.986Z,7.29
2019-01-06T11:40:00.907Z,7.24
2019-01-06T11:42:53.921Z,7.24
2019-01-06T11:45:55.780Z,7.31
2019-01-06T11:48:41.481Z,7.29
2019-01-06T11:51:32.315Z,7.33
2019-01-06T11:54:31.435Z,7.39
2019-01-06T11:57:27.601Z,7.28
2019-01-06T12:00:13.259Z,7.29
2019-01-06T12:03:15.430Z,7.24
2019-01-06T12:06:00.986Z,7.30
2019-01-06T12:08:42.120Z,7.28
2019-01-06T12:11:27.501Z,7.31
2019-01-06T12:14:20.133Z,7.34
2019-01-06T12:17:16.821Z,7.35
2019-01-06T12:20:06.676Z,7.39
2019-01-06T12:23:08.840Z,7.36
2019-01-06T12:25:55.779Z,7.30
2019-01-06T12:28:42.766Z,7.22
2019-01-06T12:31:28.716Z,7.25
2019-01-06T12:34:14.282Z,7.24
2019-01-06T12:37:13.196Z,7.21
2019-01-06T12:40:05.828Z,7.21
2019-01-06T12:43:06.182Z,7.08
2019-01-06T12:45:53.226Z,7.20
2019-01-06T12:48:38.970Z,7.17
2019-01-06T12:51:25.577Z,7.21
2019-01-06T12:54:10.921Z,7.09
2019-01-06T12:57:13.060Z,7.14
2019-01-06T13:00:15.295Z,7.18
2019-01-06T13:03:00.989Z,7.23
2019-01-06T13:05:57.011Z,7.16
2019-01-06T13:08:43.041Z,7.17
2019-01-06T13:11:30.060Z,7.19
2019-01-06T13:14:32.836Z,7.20
2019-01-06T13:17:18.600Z,7.18
2019-01-06T13:20:04.275Z,7.18
2019-01-06T13:22:50.446Z,7.11
2019-01-06T13:25:34.035Z,7.11
2019-01-06T13:28:19.621Z,7.07
2019-01-06T13:31:14.702Z,7.12
2019-01-06T13:34:17.120Z,7.10
2019-01-06T13:37:10.171Z,7.15
2019-01-06T13:40:12.616Z,7.14
2019-01-06T13:43:02.611Z,7.19
2019-01-06T13:46:02.911Z,7.21
2019-01-06T13:48:50.201Z,7.09
2019-01-06T13:51:50.445Z,7.11
2019-01-06T13:54:35.937Z,7.15
2019-01-06T13:57:35.145Z,7.06
2019-01-06T14:00:22.580Z,7.06
2019-01-06T14:03:19.046Z,6.95
2019-01-06T14:06:08.856Z,7.05
2019-01-06T14:08:54.446Z,6.97
2019-01-06T14:11:44.255Z,6.97
2019-01-06T14:14:31.525Z,7.02
2019-01-06T14:17:17.565Z,6.97
2019-01-06T14:20:04.636Z,7.01
2019-01-06T14:22:51.856Z,6.93
2019-01-06T14:25:41.646Z,6.94
2019-01-06T14:28:27.191Z,7.00
2019-01-06T14:31:26.430Z,6.95
2019-01-06T14:34:12.530Z,7.00
2019-01-06T14:37:02.431Z,6.87
2019-01-06T14:39:48.886Z,6.93
2019-01-06T14:42:41.986Z,6.83
2019-01-06T14:45:39.545Z,6.84
2019-01-06T14:48:33.090Z,6.82
2019-01-06T14:51:23.781Z,6.78
2019-01-06T14:54:04.300Z,6.79
2019-01-06T14:56:52.810Z,6.78
2019-01-06T14:59:38.896Z,6.75
2019-01-06T15:02:28.739Z,6.74
2019-01-06T15:05:14.785Z,6.71
2019-01-06T15:08:04.916Z,6.63
2019-01-06T15:10:52.766Z,6.66
2019-01-06T15:14:01.359Z,6.63
2019-01-06T15:17:06.971Z,6.65
2019-01-06T15:19:56.671Z,6.65
2019-01-06T15:23:13.846Z,6.60
2019-01-06T15:26:01.990Z,6.59
2019-01-06T15:29:29.829Z,6.61
2019-01-06T15:32:17.981Z,6.57
2019-01-06T15:35:25.935Z,6.58
2019-01-06T15:38:15.895Z,6.52
2019-01-06T15:41:36.095Z,6.53
2019-01-06T15:44:34.708Z,6.55
2019-01-06T15:51:11.397Z,6.49
2019-01-06T15:54:07.383Z,6.42
2019-01-06T15:57:29.894Z,6.40
2019-01-06T16:01:09.679Z,6.43
2019-01-06T16:04:10.834Z,6.41
2019-01-06T16:07:28.327Z,6.36
2019-01-06T16:10:34.375Z,6.37
2019-01-06T16:16:55.624Z,6.36
2019-01-06T16:20:17.351Z,6.36
2019-01-06T16:23:03.192Z,6.35
2019-01-06T16:25:50.441Z,6.39
2019-01-06T16:28:46.536Z,6.43
2019-01-06T16:31:42.740Z,6.41
2019-01-06T16:34:28.823Z,6.40
2019-01-06T16:37:14.941Z,6.40
2019-01-06T16:40:15.746Z,6.38
2019-01-06T16:43:15.198Z,6.37
2019-01-06T16:46:00.400Z,6.38
2019-01-06T16:48:56.776Z,6.42
2019-01-06T16:51:50.305Z,6.44
2019-01-06T16:54:35.880Z,6.41
2019-01-06T16:57:26.372Z,6.42
2019-01-06T17:00:20.031Z,6.42
2019-01-06T17:03:13.136Z,6.42
2019-01-06T17:06:18.966Z,6.47
2019-01-06T17:09:05.210Z,6.43
2019-01-06T17:11:55.701Z,6.47
2019-01-06T17:14:45.821Z,6.42
2019-01-06T17:17:24.834Z,6.36
2019-01-06T17:20:14.805Z,6.38
2019-01-06T17:23:04.906Z,6.39
2019-01-06T17:26:07.021Z,6.37
2019-01-06T17:29:03.132Z,6.39
2019-01-06T17:31:59.306Z,6.30
2019-01-06T17:34:52.510Z,6.34
2019-01-06T17:37:57.896Z,6.29
2019-01-06T17:40:43.570Z,6.25
2019-01-06T17:43:34.003Z,6.26
2019-01-06T17:46:36.696Z,6.28
2019-01-06T17:49:23.238Z,6.33
2019-01-06T17:52:28.666Z,6.28
2019-01-06T17:55:34.253Z,6.28
2019-01-06T17:58:20.188Z,6.27
2019-01-06T18:01:11.731Z,6.29
2019-01-06T18:03:59.123Z,6.27
2019-01-06T18:06:54.256Z,6.29
2019-01-06T18:09:53.841Z,6.30
2019-01-06T18:12:46.867Z,6.27
2019-01-06T18:15:40.014Z,6.22
2019-01-06T18:18:42.699Z,6.21
2019-01-06T18:21:35.752Z,6.21
2019-01-06T18:24:34.963Z,6.13
2019-01-06T18:27:21.240Z,6.10
2019-01-06T18:30:26.643Z,6.15
2019-01-06T18:33:16.740Z,6.12
2019-01-06T18:36:06.570Z,6.12
2019-01-06T18:39:08.332Z,6.09
2019-01-06T18:41:51.960Z,6.12
2019-01-06T18:44:39.436Z,6.17
2019-01-06T18:47:26.275Z,6.19
2019-01-06T18:50:22.284Z,6.14
2019-01-06T18:53:19.176Z,6.19
2019-01-06T18:56:08.524Z,6.12
2019-01-06T18:58:56.051Z,6.14
2019-01-06T19:01:59.126Z,6.14
2019-01-06T19:04:42.283Z,6.15
2019-01-06T19:07:35.906Z,6.13
2019-01-06T19:10:24.911Z,6.14
2019-01-06T19:13:13.164Z,6.13
2019-01-06T19:16:04.414Z,6.15
2019-01-06T19:19:07.548Z,6.13
2019-01-06T19:21:53.886Z,6.18
2019-01-06T19:24:41.283Z,6.16
2019-01-06T19:27:31.707Z,6.15
2019-01-06T19:30:34.364Z,6.18
2019-01-06T19:33:20.623Z,6.17
2019-01-06T19:36:26.444Z,6.12
2019-01-06T19:39:19.823Z,6.18
2019-01-06T19:42:16.395Z,6.19
2019-01-06T19:45:09.964Z,6.17
2019-01-06T19:48:06.264Z,6.17
2019-01-06T19:51:12.064Z,6.13
2019-01-06T19:53:58.112Z,6.10
2019-01-06T19:56:51.408Z,6.11
2019-01-06T19:59:37.653Z,5.99
2019-01-06T20:02:27.893Z,6.02
2019-01-06T20:05:24.193Z,5.96
2019-01-06T20:08:14.739Z,5.95
2019-01-06T20:11:00.958Z,5.91
2019-01-06T20:13:54.394Z,5.86
2019-01-06T20:16:57.248Z,5.88
2019-01-06T20:19:47.338Z,5.91
2019-01-06T20:22:37.624Z,5.94
2019-01-06T20:25:31.098Z,5.93
2019-01-06T20:28:17.469Z,5.94
2019-01-06T20:31:14.034Z,5.96
2019-01-06T20:34:00.282Z,5.94
2019-01-06T20:36:46.109Z,5.95
2019-01-06T20:39:32.568Z,5.92
2019-01-06T20:42:35.433Z,5.96
2019-01-06T20:45:23.519Z,5.96
2019-01-06T20:48:28.954Z,5.96
2019-01-06T20:51:21.801Z,5.92
2019-01-06T20:54:09.113Z,5.88
2019-01-06T20:56:55.273Z,5.88
2019-01-06T20:59:40.196Z,5.90
2019-01-06T21:02:33.688Z,5.84
2019-01-06T21:05:17.649Z,5.89
2019-01-06T21:08:16.967Z,5.85
2019-01-06T21:11:07.148Z,5.87
2019-01-06T21:13:53.278Z,5.87
2019-01-06T21:16:39.008Z,5.84
2019-01-06T21:19:32.448Z,5.79
2019-01-06T21:22:19.870Z,5.79
2019-01-06T21:25:13.278Z,5.78
2019-01-06T21:28:03.724Z,5.80
2019-01-06T21:30:56.838Z,5.81
2019-01-06T21:33:42.570Z,5.88
2019-01-06T21:36:30.295Z,5.86
2019-01-06T21:39:16.363Z,5.78
2019-01-06T21:42:03.756Z,5.80
2019-01-06T21:44:51.168Z,5.81
2019-01-06T21:47:38.959Z,5.83
2019-01-06T21:50:29.108Z,5.83
2019-01-06T21:53:31.308Z,5.81
2019-01-06T21:56:26.133Z,5.81
2019-01-06T21:59:25.261Z,5.80
2019-01-06T22:02:10.863Z,5.82
2019-01-06T22:05:13.655Z,5.87
2019-01-06T22:08:07.124Z,5.77
2019-01-06T22:11:06.414Z,5.80
2019-01-06T22:13:54.166Z,5.78
2019-01-06T22:16:50.032Z,5.81
2019-01-06T22:19:36.028Z,5.81
2019-01-06T22:22:20.488Z,5.84
2019-01-06T22:25:05.829Z,5.84
2019-01-06T22:27:52.903Z,5.83
2019-01-06T22:30:43.162Z,5.79
2019-01-06T22:33:29.259Z,5.82
2019-01-06T22:36:28.208Z,5.83
2019-01-06T22:39:08.811Z,5.86
2019-01-06T22:42:07.548Z,5.88
2019-01-06T22:45:09.899Z,5.81
2019-01-06T22:47:59.980Z,5.85
2019-01-06T22:50:47.314Z,5.87
2019-01-06T22:53:34.253Z,5.83
2019-01-06T22:56:21.514Z,5.90
2019-01-06T22:59:25.856Z,5.89
2019-01-06T23:02:22.588Z,5.90
2019-01-06T23:05:07.598Z,5.85
2019-01-06T23:08:03.293Z,5.84
2019-01-06T23:10:59.118Z,5.79
2019-01-06T23:13:57.839Z,5.72
2019-01-06T23:16:47.587Z,5.77
2019-01-06T23:19:33.459Z,5.81
2019-01-06T23:22:21.968Z,5.75
2019-01-06T23:25:09.041Z,5.78
2019-01-06T23:28:09.216Z,5.73
2019-01-06T23:31:06.920Z,5.76
2019-01-06T23:33:56.769Z,5.77
2019-01-06T23:36:42.264Z,5.78
2019-01-06T23:39:28.500Z,5.81
2019-01-06T23:42:15.913Z,5.73
2019-01-06T23:45:05.493Z,5.72
2019-01-06T23:47:46.899Z,5.77
2019-01-06T23:50:43.165Z,5.78
2019-01-06T23:53:30.068Z,5.82
2019-01-06T23:56:31.329Z,5.84
2019-01-06T23:59:23.310Z,5.81
